Helas — C4AZ2 — position and weather

sailwx.info

Track history (hours):
 
Tides and Currents Weather Stations Pressure Air Temp Water Temp Dewpoint Dewpoint Depression Visibility Wind Speed Wind Dir Waves Ship Positions

Helas

Last reported at 2014-Jul-31 04:33 UTC. Time now 2014-Jul-31 05:28 UTC.
Position N 51°38' E 002°12'.

Length 89 m; draft 5 m.

Type: Cargo ship. MMSI: 210031000.

Date/timePositionNaut miles runAvg speedWind from/ knotsBaromVisibWave heightAir tempDewpointWater temp
2014-Jul-31 04:33N 51°38' E 002°12'8 7.7
2014-Jul-31 03:34N 51°44' E 002°20'12 8.3
2014-Jul-31 02:04N 51°53' E 002°34'68 9.9
2014-Jul-30 19:13N 52°31' E 004°05'6 9.1
2014-Jul-30 18:33N 52°31' E 004°15'9 9.3
2014-Jul-30 17:33N 52°29' E 004°30'4 3.9
2014-Jul-30 16:33N 52°28' E 004°36'1 1.1
2014-Jul-30 15:30N 52°28' E 004°38'0 0.0
2014-Jul-30 14:33N 52°28' E 004°38'0 0.0
2014-Jul-30 13:33N 52°28' E 004°38'0 0.0
2014-Jul-30 12:33N 52°28' E 004°38'0 0.0
2014-Jul-30 11:33N 52°28' E 004°38'0 0.0
2014-Jul-30 10:33N 52°28' E 004°38'0 0.0
2014-Jul-30 09:33N 52°28' E 004°38'0 0.0
2014-Jul-30 08:33N 52°28' E 004°38'0 0.0
2014-Jul-30 07:33N 52°28' E 004°38'0 0.0
2014-Jul-30 06:33N 52°28' E 004°38'0 0.0
2014-Jul-30 05:33N 52°28' E 004°38'0 0.0
2014-Jul-30 04:33N 52°28' E 004°38'0 0.0
2014-Jul-30 03:33N 52°28' E 004°38'0 0.0
2014-Jul-30 02:33N 52°28' E 004°38'0 0.0
2014-Jul-30 01:33N 52°28' E 004°38'0 0.0
2014-Jul-30 00:30N 52°28' E 004°38'0 0.0
2014-Jul-29 23:33N 52°28' E 004°38'0 0.0
2014-Jul-29 22:33N 52°28' E 004°38'0 0.0
2014-Jul-29 21:33N 52°28' E 004°38'0 0.0
2014-Jul-29 20:28N 52°28' E 004°38'5 5.1
2014-Jul-29 19:34N 52°26' E 004°44'3 2.8
2014-Jul-29 18:33N 52°25' E 004°49'0 0.0
2014-Jul-29 17:33N 52°25' E 004°49'0 0.0
2014-Jul-29 16:32N 52°25' E 004°49'0 0.0
2014-Jul-29 15:31N 52°25' E 004°49'0 0.1
2014-Jul-29 14:31N 52°25' E 004°49'0 0.0
2014-Jul-29 13:31N 52°25' E 004°49'0 0.0
2014-Jul-29 12:31N 52°25' E 004°49'0 0.0
2014-Jul-29 11:31N 52°25' E 004°49'0 0.0
2014-Jul-29 10:31N 52°25' E 004°49'0 0.0
2014-Jul-29 09:31N 52°25' E 004°49'0 0.0
2014-Jul-29 08:31N 52°25' E 004°49'0 0.0
2014-Jul-29 07:31N 52°25' E 004°49'0 0.0
2014-Jul-29 06:31N 52°25' E 004°49'0 0.0
2014-Jul-29 05:31N 52°25' E 004°49'0 0.0
2014-Jul-29 04:34N 52°25' E 004°49'0 0.0
2014-Jul-29 03:33N 52°25' E 004°49'0 0.0
2014-Jul-29 02:33N 52°25' E 004°49'0 0.0
2014-Jul-29 01:34N 52°25' E 004°49'0 0.0
2014-Jul-29 00:32N 52°25' E 004°49'0 0.0
2014-Jul-28 23:31N 52°25' E 004°49'0 0.0
2014-Jul-28 22:31N 52°25' E 004°49'0 0.5
2014-Jul-28 21:33N 52°25' E 004°48'8 8.1
2014-Jul-28 20:33N 52°28' E 004°36'6 5.8
2014-Jul-28 19:33N 52°28' E 004°27'8 8.3
2014-Jul-28 18:33N 52°29' E 004°13'5 5.1
2014-Jul-28 17:33N 52°28' E 004°04'5 4.9
2014-Jul-28 16:33N 52°27' E 003°57'6 6.3
2014-Jul-28 15:33N 52°24' E 003°48'67 6.7
2014-Jul-28 05:33N 51°39' E 002°28'6 5.8
2014-Jul-28 04:33N 51°34' E 002°22'8 8.2
2014-Jul-28 03:33N 51°27' E 002°14'1010.3
2014-Jul-28 02:33N 51°18' E 002°07'1110.7
2014-Jul-28 01:34N 51°10' E 001°56'1311.9
2014-Jul-28 00:30N 51°02' E 001°41'1212.4
2014-Jul-27 23:33N 50°53' E 001°29'2210.4
2014-Jul-27 21:26N 50°36' E 001°07'8 8.1
2014-Jul-27 20:28N 50°32' E 000°57'5 5.2
2014-Jul-27 19:33N 50°30' E 000°49'4 4.4
2014-Jul-27 18:33N 50°29' E 000°43'4 4.0
2014-Jul-27 17:33N 50°28' E 000°37'4 3.7
2014-Jul-27 16:33N 50°26' E 000°31'5 3.7
2014-Jul-27 15:07N 50°25' E 000°23'2 3.8
2014-Jul-27 14:33N 50°24' E 000°20'4 3.9
2014-Jul-27 13:33N 50°23' E 000°14'86 6.1
2014-Jul-26 23:30N 49°59' W 001°55'139 7.7
2014-Jul-26 05:26N 48°57' W 005°07'47 9.7
2014-Jul-26 00:33N 48°20' W 005°50'10 9.6
2014-Jul-25 23:33N 48°10' W 005°53'10 9.6
2014-Jul-25 22:33N 48°01' W 005°56'9 8.8
2014-Jul-25 21:33N 47°52' W 005°58'  
2014-Jul-23 03:11N 43°41' W 006°14'1911.3
2014-Jul-23 01:30N 43°42' W 005°48'1111.3
2014-Jul-23 00:32N 43°41' W 005°33'1111.1
2014-Jul-22 23:32N 43°40' W 005°17'  
Track history (hours):
 
Tides and Currents Weather Stations Pressure Air Temp Water Temp Dewpoint Dewpoint Depression Visibility Wind Speed Wind Dir Waves Ship Positions

Helas

Last reported at 2014-Jul-31 04:33 UTC. Time now 2014-Jul-31 05:28 UTC.
Position N 51°38' E 002°12'.

Length 89 m; draft 5 m.

Type: Cargo ship. MMSI: 210031000.

Date/timePositionNaut miles runAvg speedWind from/ knotsBaromVisibWave heightAir tempDewpointWater temp
2014-Jul-31 04:33N 51°38' E 002°12'8 7.7
2014-Jul-31 03:34N 51°44' E 002°20'12 8.3
2014-Jul-31 02:04N 51°53' E 002°34'68 9.9
2014-Jul-30 19:13N 52°31' E 004°05'6 9.1
2014-Jul-30 18:33N 52°31' E 004°15'9 9.3
2014-Jul-30 17:33N 52°29' E 004°30'4 3.9
2014-Jul-30 16:33N 52°28' E 004°36'1 1.1
2014-Jul-30 15:30N 52°28' E 004°38'0 0.0
2014-Jul-30 14:33N 52°28' E 004°38'0 0.0
2014-Jul-30 13:33N 52°28' E 004°38'0 0.0
2014-Jul-30 12:33N 52°28' E 004°38'0 0.0
2014-Jul-30 11:33N 52°28' E 004°38'0 0.0
2014-Jul-30 10:33N 52°28' E 004°38'0 0.0
2014-Jul-30 09:33N 52°28' E 004°38'0 0.0
2014-Jul-30 08:33N 52°28' E 004°38'0 0.0
2014-Jul-30 07:33N 52°28' E 004°38'0 0.0
2014-Jul-30 06:33N 52°28' E 004°38'0 0.0
2014-Jul-30 05:33N 52°28' E 004°38'0 0.0
2014-Jul-30 04:33N 52°28' E 004°38'0 0.0
2014-Jul-30 03:33N 52°28' E 004°38'0 0.0
2014-Jul-30 02:33N 52°28' E 004°38'0 0.0
2014-Jul-30 01:33N 52°28' E 004°38'0 0.0
2014-Jul-30 00:30N 52°28' E 004°38'0 0.0
2014-Jul-29 23:33N 52°28' E 004°38'0 0.0
2014-Jul-29 22:33N 52°28' E 004°38'0 0.0
2014-Jul-29 21:33N 52°28' E 004°38'0 0.0
2014-Jul-29 20:28N 52°28' E 004°38'5 5.1
2014-Jul-29 19:34N 52°26' E 004°44'3 2.8
2014-Jul-29 18:33N 52°25' E 004°49'0 0.0
2014-Jul-29 17:33N 52°25' E 004°49'0 0.0
2014-Jul-29 16:32N 52°25' E 004°49'0 0.0
2014-Jul-29 15:31N 52°25' E 004°49'0 0.1
2014-Jul-29 14:31N 52°25' E 004°49'0 0.0
2014-Jul-29 13:31N 52°25' E 004°49'0 0.0
2014-Jul-29 12:31N 52°25' E 004°49'0 0.0
2014-Jul-29 11:31N 52°25' E 004°49'0 0.0
2014-Jul-29 10:31N 52°25' E 004°49'0 0.0
2014-Jul-29 09:31N 52°25' E 004°49'0 0.0
2014-Jul-29 08:31N 52°25' E 004°49'0 0.0
2014-Jul-29 07:31N 52°25' E 004°49'0 0.0
2014-Jul-29 06:31N 52°25' E 004°49'0 0.0
2014-Jul-29 05:31N 52°25' E 004°49'0 0.0
2014-Jul-29 04:34N 52°25' E 004°49'0 0.0
2014-Jul-29 03:33N 52°25' E 004°49'0 0.0
2014-Jul-29 02:33N 52°25' E 004°49'0 0.0
2014-Jul-29 01:34N 52°25' E 004°49'0 0.0
2014-Jul-29 00:32N 52°25' E 004°49'0 0.0
2014-Jul-28 23:31N 52°25' E 004°49'0 0.0
2014-Jul-28 22:31N 52°25' E 004°49'0 0.5
2014-Jul-28 21:33N 52°25' E 004°48'8 8.1
2014-Jul-28 20:33N 52°28' E 004°36'6 5.8
2014-Jul-28 19:33N 52°28' E 004°27'8 8.3
2014-Jul-28 18:33N 52°29' E 004°13'5 5.1
2014-Jul-28 17:33N 52°28' E 004°04'5 4.9
2014-Jul-28 16:33N 52°27' E 003°57'6 6.3
2014-Jul-28 15:33N 52°24' E 003°48'67 6.7
2014-Jul-28 05:33N 51°39' E 002°28'6 5.8
2014-Jul-28 04:33N 51°34' E 002°22'8 8.2
2014-Jul-28 03:33N 51°27' E 002°14'1010.3
2014-Jul-28 02:33N 51°18' E 002°07'1110.7
2014-Jul-28 01:34N 51°10' E 001°56'1311.9
2014-Jul-28 00:30N 51°02' E 001°41'1212.4
2014-Jul-27 23:33N 50°53' E 001°29'2210.4
2014-Jul-27 21:26N 50°36' E 001°07'8 8.1
2014-Jul-27 20:28N 50°32' E 000°57'5 5.2
2014-Jul-27 19:33N 50°30' E 000°49'4 4.4
2014-Jul-27 18:33N 50°29' E 000°43'4 4.0
2014-Jul-27 17:33N 50°28' E 000°37'4 3.7
2014-Jul-27 16:33N 50°26' E 000°31'5 3.7
2014-Jul-27 15:07N 50°25' E 000°23'2 3.8
2014-Jul-27 14:33N 50°24' E 000°20'4 3.9
2014-Jul-27 13:33N 50°23' E 000°14'86 6.1
2014-Jul-26 23:30N 49°59' W 001°55'139 7.7
2014-Jul-26 05:26N 48°57' W 005°07'47 9.7
2014-Jul-26 00:33N 48°20' W 005°50'10 9.6
2014-Jul-25 23:33N 48°10' W 005°53'10 9.6
2014-Jul-25 22:33N 48°01' W 005°56'9 8.8
2014-Jul-25 21:33N 47°52' W 005°58'  
2014-Jul-23 03:11N 43°41' W 006°14'1911.3
2014-Jul-23 01:30N 43°42' W 005°48'1111.3
2014-Jul-23 00:32N 43°41' W 005°33'1111.1
2014-Jul-22 23:32N 43°40' W 005°17'  

Dump ship's entire track history